Time;durP1;ratioP1;P1;durP2;ratioP2;P2;SDS_P1;SDS_P2;PMS_P1;PMS_P2;Temp;Humidity;BMP_temperature;BMP_pressure;BME280_temperature;BME280_humidity;BME280_pressure;Samples;Min_cycle;Max_cycle;Signal;HPM_P1;HPM_P2
2021/09/04 00:01:01;;;;;;;107.33;62.20;;;;;;;;;;5076770;28;20467;-58
2021/09/04 00:03:29;;;;;;;91.53;53.03;;;;;;;;;;5076758;28;20449;-54
2021/09/04 00:06:13;;;;;;;29.63;23.10;;;;;;;;;;5076750;28;20487;-56
2021/09/04 00:08:42;;;;;;;24.17;17.27;;;;;;;;;;5076459;28;20437;-49
2021/09/04 00:11:11;;;;;;;126.13;68.77;;;;;;;;;;5076528;28;20425;-52
2021/09/04 00:14:17;;;;;;;53.93;34.53;;;;;;;;;;5076758;28;20504;-55
2021/09/04 00:16:46;;;;;;;84.17;54.93;;;;;;;;;;5076359;28;20452;-57
2021/09/04 00:19:13;;;;;;;29.13;21.63;;;;;;;;;;5076508;28;20452;-53
2021/09/04 00:21:40;;;;;;;46.33;32.17;;;;;;;;;;5076467;28;20495;-44
2021/09/04 00:24:07;;;;;;;90.73;57.63;;;;;;;;;;5076760;28;20472;-49
2021/09/04 00:26:36;;;;;;;136.27;85.50;;;;;;;;;;5076479;28;20464;-53
2021/09/04 00:29:06;;;;;;;84.37;49.70;;;;;;;;;;5076705;28;20464;-48
2021/09/04 00:31:33;;;;;;;52.87;38.90;;;;;;;;;;5076403;28;20457;-53
2021/09/04 00:34:00;;;;;;;79.40;50.00;;;;;;;;;;5076517;28;20503;-49
2021/09/04 00:36:28;;;;;;;65.13;40.83;;;;;;;;;;5073493;28;20679;-50
2021/09/04 00:38:55;;;;;;;41.37;26.67;;;;;;;;;;5055784;28;20489;-55
2021/09/04 00:41:26;;;;;;;41.77;32.77;;;;;;;;;;5056352;28;20494;-50
2021/09/04 00:47:07;;;;;;;55.13;37.47;;;;;;;;;;5060188;28;20448;-55
2021/09/04 00:49:36;;;;;;;71.83;42.93;;;;;;;;;;5060432;28;20449;-49
2021/09/04 00:52:16;;;;;;;28.13;18.97;;;;;;;;;;5059786;28;20454;-52
2021/09/04 00:54:43;;;;;;;44.57;25.03;;;;;;;;;;5072429;28;20468;-52
2021/09/04 00:57:12;;;;;;;22.37;14.30;;;;;;;;;;5080022;28;20456;-51
2021/09/04 00:59:40;;;;;;;25.00;16.30;;;;;;;;;;5079731;28;20510;-50
2021/09/04 01:02:09;;;;;;;20.10;12.30;;;;;;;;;;5079945;28;20450;-52
2021/09/04 01:07:40;;;;;;;24.70;15.13;;;;;;;;;;5080016;28;20496;-53
2021/09/04 01:10:11;;;;;;;24.20;18.53;;;;;;;;;;5079817;28;20437;-57
2021/09/04 01:12:48;;;;;;;16.70;12.27;;;;;;;;;;5079453;28;20456;-53
2021/09/04 01:15:17;;;;;;;16.63;13.43;;;;;;;;;;5079648;28;20443;-57
2021/09/04 01:18:12;;;;;;;24.47;19.47;;;;;;;;;;5079810;28;20442;-51
2021/09/04 01:20:41;;;;;;;16.83;12.60;;;;;;;;;;5079466;28;20496;-54
2021/09/04 01:23:10;;;;;;;13.93;11.20;;;;;;;;;;5079454;28;20440;-55
2021/09/04 01:25:44;;;;;;;16.70;11.07;;;;;;;;;;5078928;28;20544;-52
2021/09/04 01:28:15;;;;;;;18.97;13.40;;;;;;;;;;5079139;28;20461;-47
2021/09/04 01:30:43;;;;;;;14.83;11.97;;;;;;;;;;5078953;28;20457;-52
2021/09/04 01:36:14;;;;;;;14.23;10.77;;;;;;;;;;5077580;28;20487;-54
2021/09/04 01:38:44;;;;;;;15.90;11.93;;;;;;;;;;5078919;28;20449;-53
2021/09/04 01:41:21;;;;;;;12.30;10.37;;;;;;;;;;5078071;28;20485;-55
2021/09/04 01:43:50;;;;;;;15.97;11.27;;;;;;;;;;5080924;28;20452;-50
2021/09/04 01:49:01;;;;;;;14.60;11.70;;;;;;;;;;5320953;22;20516;-55
2021/09/04 01:51:28;;;;;;;14.67;11.90;;;;;;;;;;5058325;28;20435;-54
2021/09/04 01:54:32;;;;;;;17.40;12.47;;;;;;;;;;5057751;28;20438;-54
2021/09/04 01:57:01;;;;;;;17.27;11.47;;;;;;;;;;5038753;28;20466;-49
2021/09/04 01:59:30;;;;;;;16.20;11.90;;;;;;;;;;5038723;28;20463;-54
2021/09/04 02:01:59;;;;;;;15.30;11.03;;;;;;;;;;5038349;28;20543;-55
2021/09/04 02:04:26;;;;;;;14.83;11.87;;;;;;;;;;5038926;28;20498;-55
2021/09/04 02:06:54;;;;;;;16.07;12.43;;;;;;;;;;5038253;28;20463;-56
2021/09/04 02:09:44;;;;;;;16.33;12.33;;;;;;;;;;5039003;28;20408;-57
2021/09/04 02:12:14;;;;;;;15.67;12.37;;;;;;;;;;5038599;28;20465;-54
2021/09/04 02:14:43;;;;;;;14.20;12.67;;;;;;;;;;5038683;28;20533;-54
2021/09/04 02:17:19;;;;;;;18.00;13.70;;;;;;;;;;5038267;28;20455;-50
2021/09/04 02:19:46;;;;;;;18.00;13.20;;;;;;;;;;5038388;28;20455;-54
2021/09/04 02:22:14;;;;;;;13.27;11.63;;;;;;;;;;5038876;28;20459;-52
2021/09/04 02:27:45;;;;;;;15.10;12.27;;;;;;;;;;5038417;28;20429;-57
2021/09/04 02:30:15;;;;;;;16.50;12.23;;;;;;;;;;5038674;28;20439;-51
2021/09/04 02:33:07;;;;;;;17.70;14.00;;;;;;;;;;5038007;28;20483;-50
2021/09/04 02:35:35;;;;;;;16.20;12.57;;;;;;;;;;5038615;28;20858;-48
2021/09/04 02:38:02;;;;;;;16.00;12.83;;;;;;;;;;5057162;28;20480;-52
2021/09/04 02:40:38;;;;;;;16.07;12.93;;;;;;;;;;5057332;28;20498;-51
2021/09/04 02:43:06;;;;;;;17.17;13.33;;;;;;;;;;5069612;28;20531;-54
2021/09/04 02:45:35;;;;;;;21.87;14.20;;;;;;;;;;5077993;28;20438;-55
2021/09/04 02:48:02;;;;;;;14.10;11.67;;;;;;;;;;5077261;28;20491;-48
2021/09/04 02:50:30;;;;;;;16.87;12.57;;;;;;;;;;5077096;28;20447;-58
2021/09/04 02:53:04;;;;;;;17.53;13.40;;;;;;;;;;5077427;28;20445;-50
2021/09/04 02:55:32;;;;;;;16.27;11.47;;;;;;;;;;5065505;28;20457;-57
2021/09/04 02:57:59;;;;;;;17.87;13.33;;;;;;;;;;5057895;28;20457;-54
2021/09/04 03:00:50;;;;;;;19.40;13.67;;;;;;;;;;5063371;28;20482;-49
2021/09/04 03:03:20;;;;;;;16.60;11.57;;;;;;;;;;5074992;28;20515;-50
2021/09/04 03:05:47;;;;;;;16.77;13.13;;;;;;;;;;5077285;28;20492;-51
2021/09/04 03:08:24;;;;;;;15.30;11.93;;;;;;;;;;5058464;28;20507;-56
2021/09/04 03:10:52;;;;;;;16.50;12.53;;;;;;;;;;5063724;28;20453;-56
2021/09/04 03:13:19;;;;;;;21.17;12.07;;;;;;;;;;5077474;28;20471;-56
2021/09/04 03:15:58;;;;;;;12.23;10.80;;;;;;;;;;5077343;28;20466;-56
2021/09/04 03:18:27;;;;;;;16.80;13.30;;;;;;;;;;5076906;28;20524;-57
2021/09/04 03:20:54;;;;;;;14.07;11.90;;;;;;;;;;5058064;28;20468;-57
2021/09/04 03:26:26;;;;;;;15.27;13.10;;;;;;;;;;5072098;28;20520;-52
2021/09/04 03:28:53;;;;;;;16.70;12.97;;;;;;;;;;5077354;28;20492;-53
2021/09/04 03:31:20;;;;;;;20.57;13.33;;;;;;;;;;5076766;28;20483;-50
2021/09/04 03:33:49;;;;;;;17.67;13.60;;;;;;;;;;5076835;28;20468;-51
2021/09/04 03:36:42;;;;;;;15.87;12.20;;;;;;;;;;5077084;28;20456;-51
2021/09/04 03:39:10;;;;;;;17.67;12.47;;;;;;;;;;5076985;28;20458;-51
2021/09/04 03:41:38;;;;;;;18.00;12.60;;;;;;;;;;5077026;28;20504;-55
2021/09/04 03:47:09;;;;;;;14.93;12.30;;;;;;;;;;5058477;28;20408;-52
2021/09/04 03:49:38;;;;;;;20.67;14.47;;;;;;;;;;5061512;28;20468;-46
2021/09/04 03:52:23;;;;;;;17.73;13.40;;;;;;;;;;5056956;28;20500;-58
2021/09/04 03:54:50;;;;;;;13.63;10.97;;;;;;;;;;5057477;28;20460;-56
2021/09/04 03:57:18;;;;;;;17.30;13.00;;;;;;;;;;5063433;28;20499;-50
2021/09/04 04:00:14;;;;;;;17.33;12.53;;;;;;;;;;5076827;28;20472;-52
2021/09/04 04:02:42;;;;;;;31.53;26.40;;;;;;;;;;5076655;28;20461;-49
2021/09/04 04:05:11;;;;;;;17.50;13.33;;;;;;;;;;5076813;28;20437;-53
2021/09/04 04:08:08;;;;;;;17.53;13.50;;;;;;;;;;5076562;28;20460;-48
2021/09/04 04:10:35;;;;;;;16.97;12.33;;;;;;;;;;5075303;28;20464;-56
2021/09/04 04:13:02;;;;;;;15.07;12.03;;;;;;;;;;5076886;28;20472;-58
2021/09/04 04:18:37;;;;;;;14.30;12.20;;;;;;;;;;5060663;28;20519;-56
2021/09/04 04:21:06;;;;;;;17.47;12.53;;;;;;;;;;5059400;28;20500;-50
2021/09/04 04:23:39;;;;;;;15.67;12.50;;;;;;;;;;5067345;28;20491;-48
2021/09/04 04:26:09;;;;;;;18.10;12.73;;;;;;;;;;5069315;28;20489;-55
2021/09/04 04:28:40;;;;;;;16.63;13.33;;;;;;;;;;5068336;28;20461;-55
2021/09/04 04:31:29;;;;;;;17.43;11.40;;;;;;;;;;5076455;28;20467;-55
2021/09/04 04:33:56;;;;;;;17.03;11.50;;;;;;;;;;5071341;28;20504;-54
2021/09/04 04:36:28;;;;;;;17.80;11.10;;;;;;;;;;5080061;28;20520;-51
2021/09/04 04:38:55;;;;;;;18.67;12.03;;;;;;;;;;5079341;28;20457;-47
2021/09/04 04:41:23;;;;;;;19.40;12.97;;;;;;;;;;5079642;28;20778;-51
2021/09/04 04:43:51;;;;;;;20.23;12.03;;;;;;;;;;5068685;28;20461;-51
2021/09/04 04:46:20;;;;;;;16.00;12.07;;;;;;;;;;5061550;28;20458;-49
2021/09/04 04:48:48;;;;;;;13.37;11.47;;;;;;;;;;5058761;28;20462;-49
2021/09/04 04:54:20;;;;;;;16.73;11.80;;;;;;;;;;5075661;28;20479;-53
2021/09/04 04:56:47;;;;;;;16.60;12.03;;;;;;;;;;5079496;28;20463;-55
2021/09/04 04:59:17;;;;;;;13.07;11.10;;;;;;;;;;5061745;28;20492;-50
2021/09/04 05:01:48;;;;;;;16.60;11.70;;;;;;;;;;5059184;28;20493;-45
2021/09/04 05:04:15;;;;;;;19.50;13.70;;;;;;;;;;5059421;28;20442;-54
2021/09/04 05:06:56;;;;;;;15.87;11.67;;;;;;;;;;5059147;28;20450;-56
2021/09/04 05:09:25;;;;;;;14.43;11.80;;;;;;;;;;5069361;28;20496;-47
2021/09/04 05:11:52;;;;;;;18.30;13.20;;;;;;;;;;5079479;28;20460;-52
2021/09/04 05:14:47;;;;;;;15.33;12.00;;;;;;;;;;5079375;28;20643;-55
2021/09/04 05:17:14;;;;;;;11.80;10.30;;;;;;;;;;5077475;28;20524;-51
2021/09/04 05:19:42;;;;;;;16.43;11.53;;;;;;;;;;5079393;28;20457;-55
2021/09/04 05:22:15;;;;;;;14.03;11.00;;;;;;;;;;5075493;28;20486;-54
2021/09/04 05:24:45;;;;;;;27.67;12.37;;;;;;;;;;5060038;28;20438;-53
2021/09/04 05:27:14;;;;;;;18.07;11.57;;;;;;;;;;5078422;28;20456;-58
2021/09/04 05:30:00;;;;;;;14.63;11.23;;;;;;;;;;5058623;28;20453;-49
2021/09/04 05:32:27;;;;;;;16.63;12.60;;;;;;;;;;5058822;28;20461;-52
2021/09/04 05:34:54;;;;;;;17.37;11.73;;;;;;;;;;5059329;28;20454;-52
2021/09/04 05:37:22;;;;;;;15.03;12.13;;;;;;;;;;5078257;28;20464;-56
2021/09/04 05:39:50;;;;;;;14.60;11.27;;;;;;;;;;5076605;28;20464;-54
2021/09/04 05:42:24;;;;;;;13.73;9.97;;;;;;;;;;5062439;28;20520;-52
2021/09/04 05:44:52;;;;;;;15.47;10.70;;;;;;;;;;5077281;28;20445;-53
2021/09/04 05:47:23;;;;;;;14.57;11.47;;;;;;;;;;5044580;28;20525;-57
2021/09/04 05:49:51;;;;;;;15.27;11.00;;;;;;;;;;5078276;28;20457;-55
2021/09/04 05:52:18;;;;;;;16.10;10.80;;;;;;;;;;5078133;28;20457;-55
2021/09/04 05:54:55;;;;;;;13.53;11.80;;;;;;;;;;5078728;28;20437;-55
2021/09/04 05:57:22;;;;;;;16.77;11.57;;;;;;;;;;5077688;28;20549;-57
2021/09/04 05:59:51;;;;;;;14.73;11.73;;;;;;;;;;5058163;28;20469;-54
2021/09/04 06:02:24;;;;;;;17.33;11.77;;;;;;;;;;5057461;28;20544;-56
2021/09/04 06:04:52;;;;;;;24.70;11.27;;;;;;;;;;5062503;28;20449;-53
2021/09/04 06:07:19;;;;;;;16.57;11.40;;;;;;;;;;5077664;28;20520;-56
2021/09/04 06:12:53;;;;;;;14.27;11.27;;;;;;;;;;5066746;28;20514;-59
2021/09/04 06:15:20;;;;;;;19.03;12.87;;;;;;;;;;5061918;28;20465;-58
2021/09/04 06:20:51;;;;;;;13.83;11.37;;;;;;;;;;5066168;28;20476;-49
2021/09/04 06:23:19;;;;;;;14.83;11.07;;;;;;;;;;5058250;28;20458;-54
2021/09/04 06:25:46;;;;;;;13.17;10.50;;;;;;;;;;5057511;28;20884;-46
2021/09/04 06:28:15;;;;;;;14.30;10.90;;;;;;;;;;5063522;28;20484;-52
2021/09/04 06:33:48;;;;;;;13.10;10.50;;;;;;;;;;5076936;28;20408;-56
2021/09/04 06:36:16;;;;;;;13.53;11.60;;;;;;;;;;5077228;28;20480;-58
2021/09/04 06:38:52;;;;;;;12.53;10.00;;;;;;;;;;5077208;28;20457;-54
2021/09/04 06:41:19;;;;;;;13.50;10.00;;;;;;;;;;5074828;28;20485;-54
2021/09/04 06:43:52;;;;;;;15.40;10.60;;;;;;;;;;5055461;28;20438;-57
2021/09/04 06:46:40;;;;;;;13.40;10.20;;;;;;;;;;5071232;28;20572;-55
2021/09/04 06:49:08;;;;;;;15.57;10.73;;;;;;;;;;5071403;28;20484;-58
2021/09/04 06:51:58;;;;;;;13.80;10.57;;;;;;;;;;5075288;28;20456;-55
2021/09/04 06:54:30;;;;;;;14.17;11.07;;;;;;;;;;5057135;28;20446;-55
2021/09/04 06:57:00;;;;;;;14.67;10.83;;;;;;;;;;5066276;28;20489;-53
2021/09/04 06:59:29;;;;;;;13.17;10.70;;;;;;;;;;5068654;28;20481;-52
2021/09/04 07:05:00;;;;;;;13.50;10.70;;;;;;;;;;5068796;28;20459;-53
2021/09/04 07:07:28;;;;;;;13.40;11.57;;;;;;;;;;5076740;28;20468;-55
2021/09/04 07:09:56;;;;;;;12.87;10.60;;;;;;;;;;5076753;28;20448;-52
2021/09/04 07:12:26;;;;;;;18.73;11.53;;;;;;;;;;5075644;28;20507;-52
2021/09/04 07:15:13;;;;;;;19.83;12.60;;;;;;;;;;5066629;28;20457;-51
2021/09/04 07:17:44;;;;;;;12.60;10.50;;;;;;;;;;5077222;28;20475;-55
2021/09/04 07:20:19;;;;;;;12.20;10.90;;;;;;;;;;5076876;28;20468;-54
2021/09/04 07:22:49;;;;;;;17.17;12.93;;;;;;;;;;5077084;28;20527;-55
2021/09/04 07:25:17;;;;;;;14.83;11.63;;;;;;;;;;5065167;28;20446;-49
2021/09/04 07:27:44;;;;;;;16.83;12.60;;;;;;;;;;5076593;28;20453;-51
2021/09/04 07:30:14;;;;;;;14.17;11.00;;;;;;;;;;5076789;28;20421;-52
2021/09/04 07:33:05;;;;;;;17.10;14.47;;;;;;;;;;5076366;28;20515;-50
2021/09/04 07:35:32;;;;;;;19.47;14.20;;;;;;;;;;5076568;28;20442;-57
2021/09/04 07:38:00;;;;;;;16.43;13.60;;;;;;;;;;5076245;28;20483;-56
2021/09/04 07:40:27;;;;;;;19.47;13.03;;;;;;;;;;5073532;28;20466;-54
2021/09/04 07:42:56;;;;;;;16.60;13.53;;;;;;;;;;5056179;28;20508;-55
2021/09/04 07:45:25;;;;;;;15.97;13.47;;;;;;;;;;5056188;28;20438;-56
2021/09/04 07:47:57;;;;;;;14.90;12.37;;;;;;;;;;5058416;28;20628;-57
2021/09/04 07:50:25;;;;;;;16.67;13.57;;;;;;;;;;5066936;28;20449;-50
2021/09/04 07:52:52;;;;;;;21.70;15.47;;;;;;;;;;5076728;28;20475;-53
2021/09/04 07:55:26;;;;;;;21.87;14.57;;;;;;;;;;5079678;28;20445;-54
2021/09/04 07:57:53;;;;;;;19.90;14.50;;;;;;;;;;5068918;28;20472;-53
2021/09/04 08:00:21;;;;;;;21.93;17.43;;;;;;;;;;5076562;28;20695;-57
2021/09/04 08:02:53;;;;;;;27.33;19.73;;;;;;;;;;5075863;28;20508;-53
2021/09/04 08:05:21;;;;;;;24.93;19.90;;;;;;;;;;5062136;28;20501;-50
2021/09/04 08:07:49;;;;;;;20.43;16.30;;;;;;;;;;5059368;28;20453;-55
2021/09/04 08:10:47;;;;;;;21.67;15.97;;;;;;;;;;5059866;28;20445;-56
2021/09/04 08:13:15;;;;;;;20.13;14.87;;;;;;;;;;5073193;28;20531;-52
2021/09/04 08:15:48;;;;;;;21.87;15.23;;;;;;;;;;5079609;28;20467;-53
2021/09/04 08:18:42;;;;;;;18.90;16.60;;;;;;;;;;5063564;28;20454;-52
2021/09/04 08:21:46;;;;;;;18.03;14.37;;;;;;;;;;5072479;28;20476;-52
2021/09/04 08:24:13;;;;;;;16.10;13.20;;;;;;;;;;5079896;28;20440;-45
2021/09/04 08:26:42;;;;;;;16.00;12.93;;;;;;;;;;5079433;28;20441;-49
2021/09/04 08:29:10;;;;;;;15.73;13.70;;;;;;;;;;5079179;28;20455;-51
2021/09/04 08:32:15;;;;;;;19.90;13.20;;;;;;;;;;5064277;28;20453;-56
2021/09/04 08:34:45;;;;;;;22.00;14.67;;;;;;;;;;5058333;28;20465;-57
2021/09/04 08:37:14;;;;;;;18.47;14.57;;;;;;;;;;5059321;28;20422;-56
2021/09/04 08:39:44;;;;;;;16.20;13.30;;;;;;;;;;5058865;28;20477;-56
2021/09/04 08:42:12;;;;;;;14.50;12.63;;;;;;;;;;5058650;28;20490;-55
2021/09/04 08:44:40;;;;;;;16.73;13.37;;;;;;;;;;5059275;28;20508;-56
2021/09/04 08:47:09;;;;;;;16.00;13.50;;;;;;;;;;5059633;28;20560;-52
2021/09/04 08:49:37;;;;;;;17.80;13.80;;;;;;;;;;5059101;28;20460;-55
2021/09/04 08:52:07;;;;;;;14.80;12.13;;;;;;;;;;5059142;28;20473;-57
2021/09/04 08:55:12;;;;;;;16.63;13.07;;;;;;;;;;5058575;28;20496;-54
2021/09/04 08:57:39;;;;;;;15.90;13.20;;;;;;;;;;5058874;28;20493;-50
2021/09/04 09:00:08;;;;;;;19.03;14.27;;;;;;;;;;5058512;28;20461;-57
2021/09/04 09:02:35;;;;;;;19.93;14.43;;;;;;;;;;5072468;28;20536;-53
2021/09/04 09:05:04;;;;;;;14.67;12.80;;;;;;;;;;5078011;28;20468;-55
2021/09/04 09:07:45;;;;;;;15.90;12.10;;;;;;;;;;5078826;28;20452;-55
2021/09/04 09:10:32;;;;;;;13.80;11.40;;;;;;;;;;5078495;28;20453;-52
2021/09/04 09:13:00;;;;;;;21.17;14.40;;;;;;;;;;5076914;28;20500;-54
2021/09/04 09:15:29;;;;;;;19.50;14.70;;;;;;;;;;5078087;28;20440;-50
2021/09/04 09:18:21;;;;;;;20.77;14.83;;;;;;;;;;5066090;28;20434;-57
2021/09/04 09:21:02;;;;;;;18.13;13.27;;;;;;;;;;5072552;28;20453;-53
2021/09/04 09:23:44;;;;;;;16.70;12.43;;;;;;;;;;5078770;28;20499;-52
2021/09/04 09:26:14;;;;;;;22.27;14.47;;;;;;;;;;5074209;28;20493;-52
2021/09/04 09:28:52;;;;;;;19.90;13.23;;;;;;;;;;5075825;28;20472;-54
2021/09/04 09:31:21;;;;;;;21.70;13.90;;;;;;;;;;5077766;28;20433;-55
2021/09/04 09:34:08;;;;;;;19.47;13.30;;;;;;;;;;5078090;28;20493;-49
2021/09/04 09:36:47;;;;;;;15.97;11.43;;;;;;;;;;5078368;28;20487;-51
2021/09/04 09:39:16;;;;;;;18.83;13.80;;;;;;;;;;5073915;28;20449;-56
2021/09/04 09:42:03;;;;;;;18.43;14.07;;;;;;;;;;5058393;28;20458;-55
2021/09/04 09:44:32;;;;;;;19.27;13.60;;;;;;;;;;5058070;28;20458;-55
2021/09/04 09:47:00;;;;;;;15.70;13.40;;;;;;;;;;5057977;28;20446;-49
2021/09/04 09:49:48;;;;;;;16.13;13.20;;;;;;;;;;5058366;28;20457;-54
2021/09/04 09:52:17;;;;;;;13.50;11.53;;;;;;;;;;5057862;28;20501;-53
2021/09/04 09:54:47;;;;;;;16.80;12.90;;;;;;;;;;5057951;28;20446;-54
2021/09/04 09:57:40;;;;;;;19.57;13.53;;;;;;;;;;5057831;28;20500;-52
2021/09/04 10:00:10;;;;;;;21.60;14.30;;;;;;;;;;5068173;28;20498;-52
2021/09/04 10:02:40;;;;;;;17.23;11.50;;;;;;;;;;5077314;28;20523;-52
2021/09/04 10:05:38;;;;;;;15.20;11.87;;;;;;;;;;5062595;28;20488;-49
2021/09/04 10:08:06;;;;;;;17.83;12.60;;;;;;;;;;5080904;28;20465;-53
2021/09/04 10:10:38;;;;;;;16.47;12.63;;;;;;;;;;5077056;28;20471;-53
2021/09/04 10:13:22;;;;;;;17.40;13.90;;;;;;;;;;5076654;28;20495;-52
2021/09/04 10:15:55;;;;;;;23.93;15.70;;;;;;;;;;5056276;28;20486;-51
2021/09/04 10:18:37;;;;;;;18.43;13.30;;;;;;;;;;5056552;28;20445;-56
2021/09/04 10:21:10;;;;;;;24.20;16.80;;;;;;;;;;5057147;28;20446;-54
2021/09/04 10:23:39;;;;;;;17.80;13.87;;;;;;;;;;5056206;28;20508;-55
2021/09/04 10:26:31;;;;;;;18.23;12.80;;;;;;;;;;5057016;28;20488;-53
2021/09/04 10:29:36;;;;;;;19.40;13.17;;;;;;;;;;5056432;28;20462;-52
2021/09/04 10:32:05;;;;;;;15.60;13.13;;;;;;;;;;5073465;28;20448;-52
2021/09/04 10:34:33;;;;;;;15.17;11.80;;;;;;;;;;5076368;28;20513;-55
2021/09/04 10:37:02;;;;;;;18.20;14.07;;;;;;;;;;5071060;28;20504;-51
2021/09/04 10:39:53;;;;;;;18.47;12.90;;;;;;;;;;5056898;28;20450;-50
2021/09/04 10:42:25;;;;;;;31.27;15.17;;;;;;;;;;5056136;28;20430;-51
2021/09/04 10:44:54;;;;;;;18.23;13.60;;;;;;;;;;5055981;28;20430;-54
2021/09/04 10:47:23;;;;;;;15.17;12.50;;;;;;;;;;5056766;28;20471;-53
2021/09/04 10:50:13;;;;;;;17.33;12.40;;;;;;;;;;5067363;28;20457;-54
2021/09/04 10:53:05;;;;;;;15.03;11.13;;;;;;;;;;5056595;28;20448;-50
2021/09/04 10:55:34;;;;;;;16.30;12.57;;;;;;;;;;5043733;28;20450;-54
2021/09/04 10:58:09;;;;;;;14.33;11.70;;;;;;;;;;5061845;28;20454;-56
2021/09/04 11:00:39;;;;;;;17.90;12.53;;;;;;;;;;5062985;28;20484;-54
2021/09/04 11:06:25;;;;;;;15.23;12.17;;;;;;;;;;5060374;28;20475;-57
2021/09/04 11:08:58;;;;;;;17.03;12.37;;;;;;;;;;5074421;28;20436;-58
2021/09/04 11:11:31;;;;;;;14.60;11.53;;;;;;;;;;5066005;28;20507;-53
2021/09/04 11:14:17;;;;;;;15.60;12.03;;;;;;;;;;5076715;28;20477;-57
2021/09/04 11:17:40;;;;;;;16.27;11.63;;;;;;;;;;5071672;28;20445;-55
2021/09/04 11:20:12;;;;;;;20.17;12.63;;;;;;;;;;5066962;28;20484;-55
2021/09/04 11:23:04;;;;;;;13.77;11.63;;;;;;;;;;5065409;28;20485;-55
2021/09/04 11:25:32;;;;;;;14.50;11.83;;;;;;;;;;5056067;28;20450;-54
2021/09/04 11:28:00;;;;;;;16.57;10.10;;;;;;;;;;5055543;28;20458;-50
2021/09/04 11:30:31;;;;;;;12.90;10.47;;;;;;;;;;5070708;28;20722;-50
2021/09/04 11:33:15;;;;;;;14.23;10.37;;;;;;;;;;5074974;28;20499;-50
2021/09/04 11:35:50;;;;;;;16.07;11.53;;;;;;;;;;5075643;28;20532;-49
2021/09/04 11:38:19;;;;;;;13.80;11.20;;;;;;;;;;5071243;28;20500;-57
2021/09/04 11:40:50;;;;;;;11.97;8.50;;;;;;;;;;5063044;28;20445;-53
2021/09/04 11:46:37;;;;;;;11.90;9.47;;;;;;;;;;5073533;28;20579;-58
2021/09/04 11:49:06;;;;;;;13.17;10.97;;;;;;;;;;5075715;28;20654;-52
2021/09/04 11:51:42;;;;;;;14.63;11.63;;;;;;;;;;5074000;28;20488;-57
2021/09/04 11:54:13;;;;;;;14.57;11.73;;;;;;;;;;5075590;28;20444;-56
2021/09/04 11:56:58;;;;;;;13.93;11.00;;;;;;;;;;5074802;28;20475;-54
2021/09/04 11:59:36;;;;;;;12.63;10.00;;;;;;;;;;5076573;28;20449;-57
2021/09/04 12:02:21;;;;;;;12.90;10.47;;;;;;;;;;5071435;28;20712;-58
2021/09/04 12:04:53;;;;;;;12.97;9.03;;;;;;;;;;5070517;28;20489;-59
2021/09/04 12:10:23;;;;;;;14.97;11.80;;;;;;;;;;5047616;28;20428;-51
2021/09/04 12:12:57;;;;;;;11.97;10.47;;;;;;;;;;5060159;28;20644;-55
2021/09/04 12:15:28;;;;;;;10.87;8.73;;;;;;;;;;5074657;28;20558;-57
2021/09/04 12:17:58;;;;;;;14.47;9.33;;;;;;;;;;5063175;28;20551;-55
2021/09/04 12:20:40;;;;;;;13.13;10.53;;;;;;;;;;5061800;28;20460;-54
2021/09/04 12:23:18;;;;;;;12.60;10.40;;;;;;;;;;5072557;28;20485;-54
2021/09/04 12:26:15;;;;;;;16.17;11.50;;;;;;;;;;5082669;28;20569;-54
2021/09/04 12:28:42;;;;;;;14.97;10.67;;;;;;;;;;5095035;28;20447;-55
2021/09/04 12:31:10;;;;;;;12.63;10.73;;;;;;;;;;5077912;28;20493;-56
2021/09/04 12:33:56;;;;;;;11.47;10.13;;;;;;;;;;5070873;28;20824;-52
2021/09/04 12:36:37;;;;;;;16.43;10.50;;;;;;;;;;5074906;28;20471;-50
2021/09/04 12:39:21;;;;;;;12.13;9.80;;;;;;;;;;5074962;28;20437;-55
2021/09/04 12:42:18;;;;;;;14.30;9.20;;;;;;;;;;5066993;28;20476;-53
2021/09/04 12:45:21;;;;;;;11.47;9.17;;;;;;;;;;5063043;28;20601;-48
2021/09/04 12:47:58;;;;;;;12.80;8.50;;;;;;;;;;5078740;28;20456;-56
2021/09/04 12:50:45;;;;;;;10.80;9.33;;;;;;;;;;5076770;28;20468;-55
2021/09/04 12:53:26;;;;;;;12.80;9.80;;;;;;;;;;5067378;28;20456;-56
2021/09/04 12:55:55;;;;;;;11.67;9.47;;;;;;;;;;5059298;28;20453;-56
2021/09/04 13:01:07;;;;;;;11.30;8.83;;;;;;;;;;5070349;28;20509;-55
2021/09/04 13:03:51;;;;;;;11.27;8.83;;;;;;;;;;5077592;28;20492;-49
2021/09/04 13:06:19;;;;;;;10.97;8.13;;;;;;;;;;5058993;28;20453;-56
2021/09/04 13:08:49;;;;;;;14.67;9.70;;;;;;;;;;5067060;28;20475;-55
2021/09/04 13:11:22;;;;;;;11.90;9.80;;;;;;;;;;5076558;28;20457;-50
2021/09/04 13:13:51;;;;;;;14.13;9.97;;;;;;;;;;5069700;28;20450;-57
2021/09/04 13:16:21;;;;;;;15.30;9.27;;;;;;;;;;5057047;28;20705;-56
2021/09/04 13:18:54;;;;;;;12.00;9.10;;;;;;;;;;5077367;28;20445;-55
2021/09/04 13:21:25;;;;;;;12.87;10.03;;;;;;;;;;5078458;28;20456;-56
2021/09/04 13:23:54;;;;;;;14.10;11.13;;;;;;;;;;5077322;28;20481;-54
2021/09/04 13:26:46;;;;;;;13.73;10.53;;;;;;;;;;5075997;28;20468;-54
2021/09/04 13:29:14;;;;;;;12.50;11.20;;;;;;;;;;5076767;28;20449;-51
2021/09/04 13:31:51;;;;;;;12.37;10.30;;;;;;;;;;5076399;28;20484;-55
2021/09/04 13:34:31;;;;;;;12.47;10.60;;;;;;;;;;5076559;28;20469;-52
2021/09/04 13:37:06;;;;;;;14.73;10.60;;;;;;;;;;5076435;28;20513;-54
2021/09/04 13:39:36;;;;;;;15.07;11.60;;;;;;;;;;5076596;28;20452;-55
2021/09/04 13:42:33;;;;;;;14.70;11.17;;;;;;;;;;5075658;28;20484;-53
2021/09/04 13:45:04;;;;;;;13.93;10.10;;;;;;;;;;5074442;28;20485;-50
2021/09/04 13:47:32;;;;;;;14.73;11.33;;;;;;;;;;5077200;28;20461;-52
2021/09/04 13:49:59;;;;;;;18.10;10.80;;;;;;;;;;5076624;28;20457;-50
2021/09/04 13:52:37;;;;;;;13.60;11.47;;;;;;;;;;5076179;28;20456;-54
2021/09/04 13:55:12;;;;;;;16.03;12.17;;;;;;;;;;5071641;28;20797;-52
2021/09/04 13:57:42;;;;;;;13.30;10.83;;;;;;;;;;5067289;28;20454;-52
2021/09/04 14:00:13;;;;;;;15.20;10.77;;;;;;;;;;5070074;28;20446;-56
2021/09/04 14:02:58;;;;;;;13.03;10.47;;;;;;;;;;5059048;28;20458;-55
2021/09/04 14:05:25;;;;;;;12.53;10.37;;;;;;;;;;5071656;28;20473;-54
2021/09/04 14:07:53;;;;;;;15.20;10.30;;;;;;;;;;5075083;28;20457;-52
2021/09/04 14:10:22;;;;;;;12.07;10.30;;;;;;;;;;5055914;28;20488;-54
2021/09/04 14:12:51;;;;;;;13.17;10.67;;;;;;;;;;5056576;28;20441;-52
2021/09/04 14:15:19;;;;;;;14.50;11.50;;;;;;;;;;5057335;28;20430;-56
2021/09/04 14:17:48;;;;;;;18.63;14.67;;;;;;;;;;5057168;28;20528;-55
2021/09/04 14:20:19;;;;;;;15.20;13.53;;;;;;;;;;5055926;28;20506;-50
2021/09/04 14:25:52;;;;;;;15.93;12.10;;;;;;;;;;5082029;28;20477;-53
2021/09/04 14:28:29;;;;;;;11.43;9.43;;;;;;;;;;5056445;28;20467;-57
2021/09/04 14:31:08;;;;;;;15.13;10.60;;;;;;;;;;5056044;28;20474;-54
2021/09/04 14:33:44;;;;;;;12.20;10.10;;;;;;;;;;5055653;28;20681;-52
2021/09/04 14:36:11;;;;;;;12.70;9.87;;;;;;;;;;5055503;28;20429;-55
2021/09/04 14:38:39;;;;;;;12.93;10.50;;;;;;;;;;5074739;28;20495;-47
2021/09/04 14:41:07;;;;;;;12.13;10.20;;;;;;;;;;5075114;28;20449;-54
2021/09/04 14:44:06;;;;;;;10.57;8.70;;;;;;;;;;5055416;28;20462;-53
2021/09/04 14:46:34;;;;;;;11.27;9.20;;;;;;;;;;5054598;28;20918;-54
2021/09/04 14:49:02;;;;;;;11.57;9.10;;;;;;;;;;5054981;28;20458;-53
2021/09/04 14:51:31;;;;;;;11.00;9.40;;;;;;;;;;5055625;28;20434;-52
2021/09/04 14:54:01;;;;;;;17.63;8.70;;;;;;;;;;5062680;28;20445;-56
2021/09/04 14:56:37;;;;;;;13.80;9.70;;;;;;;;;;5075919;28;20445;-56
2021/09/04 14:59:05;;;;;;;11.43;9.20;;;;;;;;;;5074727;28;20441;-54
2021/09/04 15:01:42;;;;;;;14.13;12.00;;;;;;;;;;5064755;28;20484;-49
2021/09/04 15:04:29;;;;;;;13.70;10.07;;;;;;;;;;5067826;28;20484;-56
2021/09/04 15:07:02;;;;;;;16.90;11.77;;;;;;;;;;5075525;28;20445;-51
2021/09/04 15:09:40;;;;;;;17.70;11.60;;;;;;;;;;5057061;28;20462;-58
2021/09/04 15:12:59;;;;;;;15.93;11.73;;;;;;;;;;5063170;28;20441;-55
2021/09/04 15:15:32;;;;;;;13.40;10.03;;;;;;;;;;5074968;28;20500;-53
2021/09/04 15:18:06;;;;;;;15.70;9.60;;;;;;;;;;5074131;28;20468;-60
2021/09/04 15:20:47;;;;;;;11.70;9.10;;;;;;;;;;5075031;28;20524;-61
2021/09/04 15:23:14;;;;;;;11.33;9.07;;;;;;;;;;5075248;28;20460;-56
2021/09/04 15:25:44;;;;;;;11.07;9.63;;;;;;;;;;5057649;28;20552;-53
2021/09/04 15:28:13;;;;;;;11.07;8.87;;;;;;;;;;5068471;28;20496;-54
2021/09/04 15:30:45;;;;;;;12.33;8.90;;;;;;;;;;5074908;28;20491;-55
2021/09/04 15:33:14;;;;;;;10.93;9.00;;;;;;;;;;5072923;28;20445;-51
2021/09/04 15:36:00;;;;;;;14.63;11.40;;;;;;;;;;5075882;28;20429;-53
2021/09/04 15:38:28;;;;;;;14.10;11.40;;;;;;;;;;5074854;28;20594;-50
2021/09/04 15:40:55;;;;;;;12.07;9.97;;;;;;;;;;5075214;28;20432;-56
2021/09/04 15:43:23;;;;;;;15.33;12.07;;;;;;;;;;5075420;28;20441;-55
2021/09/04 15:45:52;;;;;;;18.43;12.00;;;;;;;;;;5074983;28;20492;-57
2021/09/04 15:48:21;;;;;;;19.40;12.97;;;;;;;;;;5074699;28;20495;-54
2021/09/04 15:50:57;;;;;;;14.77;11.27;;;;;;;;;;5071068;28;20462;-55